Time;durP1;ratioP1;P1;durP2;ratioP2;P2;SDS_P1;SDS_P2;PMS_P1;PMS_P2;Temp;Humidity;BMP_temperature;BMP_pressure;BME280_temperature;BME280_humidity;BME280_pressure;Samples;Min_cycle;Max_cycle;Signal;HPM_P1;HPM_P2
2023/03/06 00:00:45;;;;;;;0.10;0.10;;;;;;;15.45;48.76;100846.22;2114212;27;20083;-56
2023/03/06 00:01:47;;;;;;;0.00;0.00;;;;;;;15.43;48.88;100848.53;2116377;27;20411;-56
2023/03/06 00:02:52;;;;;;;0.10;0.10;;;;;;;15.44;48.61;100843.88;2107685;28;20083;-57
2023/03/06 00:03:54;;;;;;;0.10;0.10;;;;;;;15.43;48.77;100843.09;2097025;28;20483;-56
2023/03/06 00:04:57;;;;;;;0.10;0.10;;;;;;;15.44;48.58;100849.31;2107340;28;20094;-56
2023/03/06 00:06:00;;;;;;;0.10;0.10;;;;;;;15.44;48.92;100850.09;2114390;27;20054;-56
2023/03/06 00:07:03;;;;;;;0.10;0.10;;;;;;;15.38;49.04;100827.09;2105295;28;20056;-56
2023/03/06 00:08:05;;;;;;;0.03;0.03;;;;;;;15.40;48.90;100830.22;2105378;27;20075;-57
2023/03/06 00:09:09;;;;;;;0.10;0.10;;;;;;;15.44;48.90;100833.78;2115071;27;20039;-56
2023/03/06 00:10:13;;;;;;;0.10;0.10;;;;;;;15.43;48.76;100836.88;2113752;27;20077;-56
2023/03/06 00:11:16;;;;;;;0.10;0.10;;;;;;;15.43;48.94;100836.88;2115659;27;21046;-56
2023/03/06 00:12:18;;;;;;;0.10;0.10;;;;;;;15.43;48.99;100832.19;2114798;27;20059;-56
2023/03/06 00:13:21;;;;;;;0.10;0.10;;;;;;;15.42;48.72;100836.09;2117186;27;20522;-56
2023/03/06 00:14:22;;;;;;;0.10;0.10;;;;;;;15.42;48.96;100841.53;2118387;27;20120;-56
2023/03/06 00:15:27;;;;;;;0.10;0.10;;;;;;;15.44;48.96;100844.66;2121597;27;20301;-56
2023/03/06 00:16:29;;;;;;;0.10;0.10;;;;;;;15.41;48.94;100834.53;2117842;27;20051;-56
2023/03/06 00:17:32;;;;;;;0.10;0.10;;;;;;;15.43;48.81;100836.88;2115399;27;20496;-56
2023/03/06 00:18:35;;;;;;;0.10;0.10;;;;;;;15.44;48.91;100822.09;2116458;27;20051;-56
2023/03/06 00:19:38;;;;;;;0.10;0.10;;;;;;;15.42;48.89;100824.41;2113826;27;20062;-56
2023/03/06 00:20:42;;;;;;;0.10;0.10;;;;;;;15.43;48.87;100829.47;2113961;27;20525;-56
2023/03/06 00:21:45;;;;;;;0.10;0.10;;;;;;;15.41;48.69;100818.22;2113751;28;20135;-56
2023/03/06 00:22:47;;;;;;;0.10;0.10;;;;;;;15.40;48.92;100822.06;2114730;27;20073;-56
2023/03/06 00:23:50;;;;;;;0.10;0.10;;;;;;;15.42;48.86;100825.19;2114049;27;20732;-55
2023/03/06 00:24:52;;;;;;;0.10;0.10;;;;;;;15.41;49.00;100823.66;2116557;27;20050;-57
2023/03/06 00:25:55;;;;;;;0.10;0.10;;;;;;;15.40;49.00;100816.63;2121188;27;20044;-56
2023/03/06 00:26:57;;;;;;;0.10;0.10;;;;;;;15.42;49.10;100819.75;2118204;27;20503;-56
2023/03/06 00:28:01;;;;;;;0.10;0.10;;;;;;;15.42;48.77;100818.97;2110074;28;20052;-56
2023/03/06 00:29:02;;;;;;;0.10;0.10;;;;;;;15.41;48.96;100818.22;2107238;28;20821;-56
2023/03/06 00:30:07;;;;;;;0.10;0.10;;;;;;;15.43;48.99;100821.31;2112531;28;20496;-56
2023/03/06 00:31:09;;;;;;;0.10;0.10;;;;;;;15.41;48.92;100815.50;2119222;27;20107;-57
2023/03/06 00:32:12;;;;;;;0.10;0.10;;;;;;;15.42;48.91;100821.69;2115038;27;20130;-56
2023/03/06 00:33:14;;;;;;;0.10;0.10;;;;;;;15.41;48.87;100815.50;2113732;28;20107;-56
2023/03/06 00:34:18;;;;;;;0.00;0.00;;;;;;;15.43;49.07;100820.56;2115493;27;20056;-56
2023/03/06 00:35:20;;;;;;;0.10;0.10;;;;;;;15.41;48.87;100815.50;2119824;27;20400;-56
2023/03/06 00:36:23;;;;;;;0.10;0.10;;;;;;;15.40;49.00;100822.06;2116870;27;20050;-56
2023/03/06 00:37:25;;;;;;;0.00;0.00;;;;;;;15.41;48.64;100812.75;2116833;27;20082;-56
2023/03/06 00:38:32;;;;;;;0.10;0.10;;;;;;;15.41;48.66;100818.22;2104982;28;20076;-56
2023/03/06 00:39:34;;;;;;;0.10;0.10;;;;;;;15.40;49.33;100816.63;2108401;28;20056;-56
2023/03/06 00:40:36;;;;;;;0.10;0.10;;;;;;;15.40;48.94;100813.91;2114372;27;20418;-56
2023/03/06 00:41:38;;;;;;;0.10;0.10;;;;;;;15.40;48.91;100816.63;2113509;27;20060;-56
2023/03/06 00:42:42;;;;;;;0.10;0.10;;;;;;;15.41;48.59;100811.97;2113711;27;20082;-56
2023/03/06 00:43:44;;;;;;;0.08;0.08;;;;;;;15.40;48.83;100813.91;2113937;27;20115;-56
2023/03/06 00:44:47;;;;;;;0.10;0.10;;;;;;;15.41;48.77;100812.75;2113208;27;20052;-56
2023/03/06 00:45:49;;;;;;;0.10;0.10;;;;;;;15.41;48.74;100809.25;2119746;27;20043;-56
2023/03/06 00:46:52;;;;;;;0.10;0.10;;;;;;;15.41;48.93;100807.31;2115596;27;20078;-56
2023/03/06 00:47:54;;;;;;;0.10;0.10;;;;;;;15.41;48.60;100806.53;2113786;27;20462;-56
2023/03/06 00:48:57;;;;;;;0.10;0.10;;;;;;;15.41;48.87;100799.16;2113023;27;20118;-56
2023/03/06 00:50:00;;;;;;;0.10;0.10;;;;;;;15.41;48.87;100796.44;2112842;27;20458;-56
2023/03/06 00:51:03;;;;;;;0.10;0.10;;;;;;;15.39;48.95;100796.03;2120428;27;20405;-56
2023/03/06 00:52:05;;;;;;;0.00;0.00;;;;;;;15.40;48.72;100803.03;2115297;27;20145;-56
2023/03/06 00:53:09;;;;;;;0.10;0.10;;;;;;;15.39;49.01;100798.75;2114191;27;20051;-56
2023/03/06 00:54:11;;;;;;;0.05;0.05;;;;;;;15.39;48.74;100793.31;2113393;27;20453;-56
2023/03/06 00:55:14;;;;;;;0.10;0.10;;;;;;;15.40;49.06;100788.63;2104213;28;20520;-56
2023/03/06 00:56:16;;;;;;;0.10;0.10;;;;;;;15.40;48.94;100789.41;2104969;27;20573;-57
2023/03/06 00:57:22;;;;;;;0.10;0.10;;;;;;;15.39;49.01;100789.78;2112455;27;20058;-56
2023/03/06 00:58:24;;;;;;;0.10;0.10;;;;;;;15.39;49.03;100785.16;2115631;27;20112;-56
2023/03/06 00:59:27;;;;;;;0.10;0.10;;;;;;;15.40;48.91;100794.06;2117202;27;20404;-56
2023/03/06 01:00:29;;;;;;;0.10;0.10;;;;;;;15.40;48.84;100791.34;2114503;27;20052;-56
2023/03/06 01:01:32;;;;;;;0.05;0.05;;;;;;;15.40;48.85;100792.13;2104103;28;20048;-56
2023/03/06 01:02:34;;;;;;;0.05;0.05;;;;;;;15.39;49.02;100782.44;2106094;28;20585;-56
2023/03/06 01:03:37;;;;;;;0.10;0.10;;;;;;;15.41;48.95;100787.50;2113286;27;20115;-56
2023/03/06 01:04:39;;;;;;;0.10;0.10;;;;;;;15.40;48.95;100781.25;2114159;27;20099;-56
2023/03/06 01:05:43;;;;;;;0.10;0.10;;;;;;;15.41;48.74;100790.22;2120295;27;20130;-56
2023/03/06 01:06:45;;;;;;;0.10;0.10;;;;;;;15.40;48.75;100783.19;2116710;27;20055;-56
2023/03/06 01:07:48;;;;;;;0.10;0.10;;;;;;;15.39;48.81;100782.44;2115507;27;20184;-56
2023/03/06 01:08:50;;;;;;;0.10;0.10;;;;;;;15.40;48.87;100781.25;2114998;27;20145;-56
2023/03/06 01:09:52;;;;;;;0.10;0.10;;;;;;;15.40;48.92;100781.25;2113259;27;20585;-56
2023/03/06 01:10:55;;;;;;;0.10;0.10;;;;;;;15.40;48.84;100783.19;2113700;27;20081;-55
2023/03/06 01:11:58;;;;;;;0.10;0.10;;;;;;;15.40;48.90;100786.69;2113079;28;20055;-56
2023/03/06 01:13:01;;;;;;;0.10;0.10;;;;;;;15.40;48.80;100777.75;2113621;27;20097;-56
2023/03/06 01:14:04;;;;;;;0.10;0.10;;;;;;;15.40;48.67;100781.25;2116228;27;20047;-56
2023/03/06 01:15:07;;;;;;;0.10;0.10;;;;;;;15.40;48.72;100778.53;2115062;27;20108;-56
2023/03/06 01:16:12;;;;;;;0.10;0.10;;;;;;;15.40;49.05;100781.25;2118200;27;20072;-56
2023/03/06 01:17:14;;;;;;;0.10;0.10;;;;;;;15.39;48.97;100776.19;2113459;28;20051;-56
2023/03/06 01:18:18;;;;;;;0.10;0.10;;;;;;;15.40;49.02;100772.31;2109882;28;20481;-56
2023/03/06 01:19:20;;;;;;;0.10;0.10;;;;;;;15.39;48.73;100773.47;2102141;28;20076;-56
2023/03/06 01:20:23;;;;;;;0.10;0.10;;;;;;;15.39;48.82;100776.97;2111290;28;20627;-56
2023/03/06 01:21:26;;;;;;;0.08;0.08;;;;;;;15.40;48.96;100775.81;2117661;27;20130;-56
2023/03/06 01:22:29;;;;;;;0.10;0.10;;;;;;;15.38;48.71;100772.69;2112637;27;20054;-56
2023/03/06 01:23:33;;;;;;;0.10;0.10;;;;;;;15.39;48.91;100776.19;2106230;28;20101;-56
2023/03/06 01:24:36;;;;;;;0.10;0.10;;;;;;;15.39;49.01;100771.53;2107918;28;20276;-57
2023/03/06 01:25:38;;;;;;;0.10;0.10;;;;;;;15.38;48.93;100769.97;2109350;28;20543;-56
2023/03/06 01:26:41;;;;;;;0.10;0.10;;;;;;;15.38;48.65;100769.97;2111562;28;20052;-56
2023/03/06 01:27:42;;;;;;;0.10;0.10;;;;;;;15.39;48.85;100766.09;2112855;27;20147;-56
2023/03/06 01:28:45;;;;;;;0.10;0.10;;;;;;;15.39;48.76;100768.81;2112416;28;20516;-56
2023/03/06 01:29:47;;;;;;;0.10;0.10;;;;;;;15.39;48.56;100766.09;2112221;28;20583;-56
2023/03/06 01:30:50;;;;;;;0.10;0.10;;;;;;;15.40;48.96;100766.88;2114622;27;20498;-56
2023/03/06 01:31:52;;;;;;;0.10;0.10;;;;;;;15.39;48.92;100762.59;2113216;28;20099;-56
2023/03/06 01:32:55;;;;;;;0.03;0.03;;;;;;;15.39;49.01;100771.53;2110428;28;20048;-56
2023/03/06 01:33:57;;;;;;;0.00;0.00;;;;;;;15.32;49.14;100760.53;2104376;28;20048;-56
2023/03/06 01:35:02;;;;;;;0.10;0.10;;;;;;;15.39;48.93;100768.81;2114732;27;20168;-56
2023/03/06 01:36:06;;;;;;;0.08;0.08;;;;;;;15.39;48.75;100771.53;2113808;27;20047;-56
2023/03/06 01:37:10;;;;;;;0.10;0.10;;;;;;;15.29;48.80;100755.06;2115659;27;20503;-56
2023/03/06 01:38:12;;;;;;;0.15;0.15;;;;;;;15.39;48.75;100770.75;2113744;28;20539;-56
2023/03/06 01:39:15;;;;;;;0.03;0.03;;;;;;;15.39;49.04;100768.03;2104295;28;20056;-56
2023/03/06 01:40:17;;;;;;;0.10;0.10;;;;;;;15.39;49.01;100759.88;2105504;28;20101;-56
2023/03/06 01:41:20;;;;;;;0.10;0.10;;;;;;;15.40;48.88;100764.94;2119792;27;20757;-56
2023/03/06 01:42:22;;;;;;;0.10;0.10;;;;;;;15.38;49.06;100764.50;2119320;27;20412;-56
2023/03/06 01:43:28;;;;;;;0.00;0.00;;;;;;;15.40;48.96;100766.88;2108109;28;20051;-56
2023/03/06 01:44:30;;;;;;;0.00;0.00;;;;;;;15.38;48.81;100769.97;2100665;28;20056;-56
2023/03/06 01:46:11;;;;;;;0.05;0.05;;;;;;;15.30;48.95;100767.53;2104937;28;20440;-56
2023/03/06 01:47:13;;;;;;;;;;;;;;;15.09;49.46;100768.09;2106913;28;20044;-56
2023/03/06 01:48:17;;;;;;;0.10;0.10;;;;;;;15.24;49.29;100772.50;2106210;28;20010;-56
2023/03/06 01:49:22;;;;;;;0.05;0.05;;;;;;;15.29;48.77;100779.53;2113198;27;20055;-56
2023/03/06 01:50:24;;;;;;;0.10;0.10;;;;;;;15.29;48.85;100772.19;2116881;27;20463;-55
2023/03/06 01:51:32;;;;;;;0.10;0.10;;;;;;;15.27;49.08;100769.03;2116668;27;20057;-56
2023/03/06 01:52:43;;;;;;;0.08;0.08;;;;;;;15.31;49.34;100774.53;2113039;28;20078;-56
2023/03/06 01:53:47;;;;;;;0.10;0.10;;;;;;;15.30;48.82;100768.28;2114440;27;20495;-55
2023/03/06 01:54:53;;;;;;;0.10;0.10;;;;;;;15.31;48.87;100772.59;2112606;27;20051;-56
2023/03/06 01:55:56;;;;;;;0.08;0.08;;;;;;;15.30;48.90;100772.97;2103688;28;20114;-56
2023/03/06 01:57:03;;;;;;;0.10;0.10;;;;;;;15.32;49.06;100768.72;2104222;28;20044;-56
2023/03/06 01:58:10;;;;;;;0.10;0.10;;;;;;;15.31;49.02;100761.72;2107518;28;20043;-56
2023/03/06 01:59:14;;;;;;;0.10;0.10;;;;;;;15.31;49.11;100758.19;2105935;27;20054;-56
2023/03/06 02:00:21;;;;;;;0.10;0.10;;;;;;;15.31;48.84;100759.00;2112391;28;20488;-56
2023/03/06 02:01:25;;;;;;;0.10;0.10;;;;;;;15.29;48.66;100758.56;2112800;27;20043;-57
2023/03/06 02:02:27;;;;;;;0.10;0.10;;;;;;;15.29;49.04;100757.78;2112624;28;20128;-56
2023/03/06 02:03:31;;;;;;;0.10;0.10;;;;;;;15.31;49.08;100753.56;2119782;27;20058;-56
2023/03/06 02:04:35;;;;;;;0.05;0.05;;;;;;;15.32;49.14;100749.66;2114792;27;20048;-56
2023/03/06 02:05:40;;;;;;;0.10;0.10;;;;;;;15.32;48.87;100752.38;2105926;28;20040;-56
2023/03/06 02:06:43;;;;;;;0.05;0.05;;;;;;;15.31;48.85;100760.91;2109654;28;20401;-56
2023/03/06 02:07:48;;;;;;;0.10;0.10;;;;;;;15.31;48.87;100759.00;2117600;27;20130;-56
2023/03/06 02:08:51;;;;;;;0.10;0.10;;;;;;;15.31;49.11;100759.00;2104876;28;20131;-56
2023/03/06 02:09:54;;;;;;;0.10;0.10;;;;;;;15.31;48.88;100764.44;2104844;28;20492;-56
2023/03/06 02:11:05;;;;;;;0.10;0.10;;;;;;;15.32;49.04;100765.22;2114517;27;20686;-56
2023/03/06 02:12:11;;;;;;;0.10;0.10;;;;;;;15.31;48.99;100760.91;2106261;28;20052;-56
2023/03/06 02:13:13;;;;;;;0.10;0.10;;;;;;;15.29;48.80;100755.84;2106781;28;20088;-56
2023/03/06 02:14:17;;;;;;;0.00;0.00;;;;;;;15.32;48.96;100757.06;2108646;28;20077;-56
2023/03/06 02:15:22;;;;;;;0.08;0.08;;;;;;;15.30;48.94;100757.41;2104197;28;20155;-57
2023/03/06 02:16:27;;;;;;;0.10;0.10;;;;;;;15.30;49.00;100754.69;2109668;28;20527;-56
2023/03/06 02:17:29;;;;;;;0.05;0.05;;;;;;;15.30;48.98;100762.84;2108138;27;20063;-57
2023/03/06 02:18:35;;;;;;;0.00;0.00;;;;;;;15.27;48.79;100760.88;2116783;27;20059;-56
2023/03/06 02:19:48;;;;;;;0.10;0.10;;;;;;;15.27;48.98;100766.31;2112878;28;20058;-56
2023/03/06 02:20:57;;;;;;;0.10;0.10;;;;;;;15.28;48.80;100765.19;2116514;27;20397;-56
2023/03/06 02:21:59;;;;;;;0.10;0.10;;;;;;;15.28;48.93;100770.63;2108520;28;20440;-55
2023/03/06 02:23:08;;;;;;;0.10;0.10;;;;;;;15.28;48.98;100759.75;2106294;28;20172;-56
2023/03/06 02:24:21;;;;;;;0.05;0.05;;;;;;;15.25;48.92;100755.06;2114645;27;20742;-56
2023/03/06 02:25:34;;;;;;;0.03;0.03;;;;;;;15.21;48.93;100754.22;2096603;28;20553;-56
2023/03/06 02:26:38;;;;;;;0.00;0.00;;;;;;;15.25;49.08;100760.50;2088608;28;20067;-56
2023/03/06 02:27:41;;;;;;;0.10;0.10;;;;;;;15.27;48.93;100757.41;2095285;28;20055;-56
2023/03/06 02:28:43;;;;;;;0.10;0.10;;;;;;;15.25;49.22;100751.53;2095691;28;20053;-56
2023/03/06 02:29:47;;;;;;;0.10;0.10;;;;;;;15.26;48.92;100751.16;2102320;28;20516;-56
2023/03/06 02:30:51;;;;;;;0.10;0.10;;;;;;;15.29;49.02;100757.78;2105712;28;20119;-56
2023/03/06 02:31:54;;;;;;;0.10;0.10;;;;;;;15.28;49.03;100759.75;2115175;28;20491;-56
2023/03/06 02:32:57;;;;;;;0.10;0.10;;;;;;;15.28;48.72;100762.47;2117795;27;20790;-56
2023/03/06 02:34:02;;;;;;;0.08;0.08;;;;;;;15.30;49.06;100762.09;2110024;28;20075;-56
2023/03/06 02:35:05;;;;;;;0.10;0.10;;;;;;;15.28;48.82;100762.47;2106107;28;20159;-56
2023/03/06 02:36:14;;;;;;;0.10;0.10;;;;;;;15.29;48.84;100757.78;2109430;28;20044;-56
2023/03/06 02:37:16;;;;;;;0.10;0.10;;;;;;;15.27;49.08;100757.41;2109795;28;20504;-56
2023/03/06 02:38:23;;;;;;;0.10;0.10;;;;;;;15.29;48.99;100758.56;2105933;28;20048;-56
2023/03/06 02:39:30;;;;;;;0.10;0.10;;;;;;;15.28;49.02;100758.94;2110690;28;20542;-56
2023/03/06 02:40:34;;;;;;;0.03;0.03;;;;;;;15.28;48.96;100759.75;2089284;28;20052;-56
2023/03/06 02:41:36;;;;;;;0.10;0.10;;;;;;;15.28;48.83;100757.03;2090842;28;20484;-53
2023/03/06 02:42:46;;;;;;;0.10;0.10;;;;;;;15.25;48.87;100748.81;2103239;28;20132;-56
2023/03/06 02:43:50;;;;;;;0.10;0.10;;;;;;;15.26;48.95;100753.88;2104473;28;20048;-56
2023/03/06 02:44:54;;;;;;;0.10;0.10;;;;;;;15.27;48.91;100746.53;2109269;28;20475;-54
2023/03/06 02:45:56;;;;;;;0.05;0.05;;;;;;;15.26;48.82;100751.16;2111262;28;20404;-56
2023/03/06 02:46:59;;;;;;;0.10;0.10;;;;;;;15.28;48.96;100748.06;2114223;28;20051;-57
2023/03/06 02:48:02;;;;;;;0.10;0.10;;;;;;;15.24;48.97;100750.75;2103948;28;20108;-55
2023/03/06 02:49:05;;;;;;;0.00;0.00;;;;;;;15.29;48.87;100755.06;2105476;28;20036;-56
2023/03/06 02:50:08;;;;;;;0.10;0.10;;;;;;;15.28;48.74;100753.50;2105806;28;20052;-56
2023/03/06 02:51:11;;;;;;;0.10;0.10;;;;;;;15.28;48.81;100748.88;2110651;28;20440;-56
2023/03/06 02:52:13;;;;;;;0.10;0.10;;;;;;;15.29;48.94;100750.41;2112788;27;20511;-56
2023/03/06 02:53:18;;;;;;;0.10;0.10;;;;;;;15.29;48.76;100749.63;2114550;28;20516;-57
2023/03/06 02:54:20;;;;;;;0.10;0.10;;;;;;;15.28;48.86;100757.03;2112283;28;20069;-54
2023/03/06 02:55:25;;;;;;;0.10;0.10;;;;;;;15.25;48.80;100743.38;2113096;27;20519;-56
2023/03/06 02:56:30;;;;;;;0.10;0.10;;;;;;;15.23;48.73;100740.25;2106827;28;20079;-56
2023/03/06 02:57:33;;;;;;;0.10;0.10;;;;;;;15.28;48.72;100748.88;2106526;28;20484;-56
2023/03/06 02:58:34;;;;;;;0.10;0.10;;;;;;;15.28;48.87;100737.19;2112800;28;20493;-56
2023/03/06 02:59:37;;;;;;;0.10;0.10;;;;;;;15.28;48.55;100743.41;2107860;28;20085;-56
2023/03/06 03:00:40;;;;;;;0.10;0.10;;;;;;;15.28;48.67;100740.69;2100894;28;20050;-56
2023/03/06 03:01:46;;;;;;;0.10;0.10;;;;;;;15.28;48.81;100742.63;2109195;28;20834;-56
2023/03/06 03:02:48;;;;;;;0.10;0.10;;;;;;;15.27;48.72;100739.13;2100993;28;20570;-58
2023/03/06 03:03:51;;;;;;;0.10;0.10;;;;;;;15.28;48.71;100737.97;2111133;28;20500;-54
2023/03/06 03:04:55;;;;;;;0.00;0.00;;;;;;;15.28;48.75;100732.53;2112747;28;20054;-56
2023/03/06 03:05:58;;;;;;;0.10;0.10;;;;;;;15.27;48.76;100741.84;2113661;27;20055;-56
2023/03/06 03:07:03;;;;;;;0.10;0.10;;;;;;;15.27;48.75;100733.69;2112485;28;20059;-56
2023/03/06 03:08:06;;;;;;;0.10;0.10;;;;;;;15.27;48.77;100730.97;2112789;28;20501;-56
2023/03/06 03:09:08;;;;;;;0.08;0.08;;;;;;;15.28;48.62;100720.88;2117359;28;20095;-56
2023/03/06 03:10:12;;;;;;;0.10;0.10;;;;;;;15.28;48.77;100732.53;2105659;28;20608;-56
2023/03/06 03:11:15;;;;;;;0.10;0.10;;;;;;;15.26;48.71;100726.69;2103129;28;20803;-56
2023/03/06 03:12:21;;;;;;;0.10;0.10;;;;;;;15.28;48.57;100732.53;2099719;28;20646;-57
2023/03/06 03:13:23;;;;;;;0.10;0.10;;;;;;;15.27;48.83;100735.63;2103931;28;20417;-57
2023/03/06 03:14:26;;;;;;;0.10;0.10;;;;;;;15.27;48.95;100720.06;2104843;28;20048;-56
2023/03/06 03:15:28;;;;;;;0.10;0.10;;;;;;;15.28;48.63;100724.38;2103482;28;20499;-57
2023/03/06 03:16:32;;;;;;;0.10;0.10;;;;;;;15.28;48.75;100731.75;2112427;28;20134;-56
2023/03/06 03:17:34;;;;;;;0.10;0.10;;;;;;;15.28;48.62;100732.53;2105483;28;20586;-53
2023/03/06 03:18:37;;;;;;;0.10;0.10;;;;;;;15.28;48.80;100740.69;2102916;28;20044;-56
2023/03/06 03:19:39;;;;;;;0.10;0.10;;;;;;;15.27;48.83;100736.41;2100446;28;20105;-56
2023/03/06 03:20:43;;;;;;;0.10;0.10;;;;;;;15.27;48.85;100741.84;2109874;28;20142;-55
2023/03/06 03:21:46;;;;;;;0.10;0.10;;;;;;;15.27;48.68;100736.41;2113597;27;20050;-56
2023/03/06 03:22:49;;;;;;;0.10;0.10;;;;;;;15.28;48.65;100754.31;2119618;28;20544;-57
2023/03/06 03:23:51;;;;;;;0.10;0.10;;;;;;;15.27;48.63;100747.28;2112630;27;20111;-56
2023/03/06 03:24:54;;;;;;;0.10;0.10;;;;;;;15.27;48.73;100741.84;2106557;28;20408;-56
2023/03/06 03:26:05;;;;;;;0.10;0.10;;;;;;;15.24;48.59;100739.88;2097423;28;20049;-56
2023/03/06 03:27:08;;;;;;;0.10;0.10;;;;;;;15.25;48.62;100737.94;2097752;28;20052;-56
2023/03/06 03:28:11;;;;;;;0.10;0.10;;;;;;;15.26;48.78;100737.56;2110722;28;20770;-56
2023/03/06 03:29:14;;;;;;;0.00;0.00;;;;;;;15.25;48.80;100733.28;2114210;27;20055;-56
2023/03/06 03:30:17;;;;;;;0.10;0.10;;;;;;;15.26;48.66;100734.84;2118592;27;20491;-56
2023/03/06 03:31:20;;;;;;;0.10;0.10;;;;;;;15.25;48.43;100730.56;2110204;28;20174;-55
2023/03/06 03:32:23;;;;;;;0.10;0.10;;;;;;;15.26;48.66;100725.91;2102901;28;20127;-56
2023/03/06 03:33:27;;;;;;;0.10;0.10;;;;;;;15.26;48.71;100721.25;2102551;28;20052;-56
2023/03/06 03:34:29;;;;;;;0.05;0.05;;;;;;;15.25;48.57;100727.84;2106703;28;20048;-55
2023/03/06 03:35:32;;;;;;;0.10;0.10;;;;;;;15.26;48.85;100718.53;2107030;28;20055;-56
2023/03/06 03:36:34;;;;;;;0.10;0.10;;;;;;;15.26;48.55;100726.69;2104211;28;20052;-55
2023/03/06 03:37:38;;;;;;;0.08;0.08;;;;;;;15.26;48.50;100729.41;2099353;28;20090;-56
2023/03/06 03:38:40;;;;;;;0.10;0.10;;;;;;;15.25;48.82;100727.84;2091981;28;20123;-56
2023/03/06 03:39:43;;;;;;;0.10;0.10;;;;;;;15.26;48.65;100728.63;2111053;28;20056;-56
2023/03/06 03:40:45;;;;;;;0.10;0.10;;;;;;;15.26;48.72;100726.69;2106209;28;20056;-56
2023/03/06 03:41:48;;;;;;;0.10;0.10;;;;;;;15.26;48.78;100721.25;2102764;28;20485;-56
2023/03/06 03:42:50;;;;;;;0.10;0.10;;;;;;;15.25;48.76;100716.97;2102506;28;20059;-57
2023/03/06 03:43:55;;;;;;;0.05;0.05;;;;;;;15.27;48.74;100730.19;2096995;28;20067;-56
2023/03/06 03:44:58;;;;;;;0.00;0.00;;;;;;;15.25;48.96;100722.41;2102639;28;20044;-57
2023/03/06 03:46:00;;;;;;;0.10;0.10;;;;;;;15.25;48.75;100719.69;2105914;28;20060;-56
2023/03/06 03:47:03;;;;;;;0.05;0.05;;;;;;;15.26;48.74;100726.69;2113910;27;20047;-56
2023/03/06 03:48:06;;;;;;;0.10;0.10;;;;;;;15.25;48.68;100716.97;2104936;28;20052;-56
2023/03/06 03:49:09;;;;;;;0.10;0.10;;;;;;;15.25;48.54;100714.25;2108395;27;20072;-56
2023/03/06 03:50:12;;;;;;;0.10;0.10;;;;;;;15.25;48.60;100716.97;2113061;28;20121;-56
2023/03/06 03:51:15;;;;;;;0.10;0.10;;;;;;;15.25;48.63;100716.97;2101631;28;20489;-57
2023/03/06 03:52:22;;;;;;;0.10;0.10;;;;;;;15.24;48.68;100715.38;2102945;28;20075;-57
2023/03/06 03:53:24;;;;;;;0.05;0.05;;;;;;;15.25;48.59;100725.13;2109755;28;20123;-57
2023/03/06 03:54:27;;;;;;;0.10;0.10;;;;;;;15.23;48.67;100713.03;2113706;27;20081;-56
2023/03/06 03:55:29;;;;;;;0.10;0.10;;;;;;;15.25;48.88;100716.97;2107277;28;20531;-57
2023/03/06 03:56:34;;;;;;;0.10;0.10;;;;;;;15.26;48.63;100717.72;2102550;28;20123;-56
2023/03/06 03:57:42;;;;;;;0.10;0.10;;;;;;;15.22;48.55;100715.00;2103757;28;20907;-55
2023/03/06 03:58:45;;;;;;;0.03;0.03;;;;;;;15.23;48.61;100713.84;2092274;28;20049;-55
2023/03/06 03:59:48;;;;;;;0.10;0.10;;;;;;;15.25;48.60;100716.97;2094749;28;20056;-57
2023/03/06 04:00:58;;;;;;;0.08;0.08;;;;;;;15.22;48.62;100723.16;2102840;28;20049;-57
2023/03/06 04:02:03;;;;;;;0.00;0.00;;;;;;;15.24;48.70;100730.94;2099084;28;20513;-57
2023/03/06 04:03:10;;;;;;;0.03;0.03;;;;;;;15.22;48.49;100728.59;2100644;28;20099;-57
2023/03/06 04:04:15;;;;;;;0.10;0.10;;;;;;;15.22;48.68;100728.59;2100949;28;20048;-56
2023/03/06 04:05:20;;;;;;;0.10;0.10;;;;;;;15.22;48.58;100728.59;2102077;28;20048;-57
2023/03/06 04:06:22;;;;;;;0.10;0.10;;;;;;;15.23;48.75;100729.38;2103428;28;20074;-55
2023/03/06 04:07:25;;;;;;;0.08;0.08;;;;;;;15.24;48.59;100730.94;2103828;28;20056;-57
2023/03/06 04:08:28;;;;;;;0.10;0.10;;;;;;;15.24;48.58;100733.66;2104035;28;20076;-56
2023/03/06 04:09:31;;;;;;;0.10;0.10;;;;;;;15.23;48.36;100732.88;2107452;28;20056;-56
2023/03/06 04:10:33;;;;;;;0.10;0.10;;;;;;;15.23;48.41;100729.38;2101401;28;20404;-56
2023/03/06 04:11:37;;;;;;;0.05;0.05;;;;;;;15.24;48.51;100741.81;2101440;28;20122;-56
2023/03/06 04:12:39;;;;;;;0.10;0.10;;;;;;;15.24;48.79;100730.94;2098762;28;20750;-56
2023/03/06 04:13:42;;;;;;;0.03;0.03;;;;;;;15.23;48.80;100738.31;2105578;28;20554;-57
2023/03/06 04:14:44;;;;;;;0.10;0.10;;;;;;;15.24;48.46;100729.00;2118839;27;20628;-56
2023/03/06 04:15:50;;;;;;;0.10;0.10;;;;;;;15.25;48.43;100727.84;2104807;28;20051;-57
2023/03/06 04:16:53;;;;;;;0.10;0.10;;;;;;;15.20;48.79;100720.03;2101625;28;20532;-57
2023/03/06 04:17:56;;;;;;;0.10;0.10;;;;;;;15.23;48.87;100730.16;2101598;28;20083;-55
2023/03/06 04:19:01;;;;;;;0.10;0.10;;;;;;;15.22;48.49;100728.59;2099278;28;20501;-57
2023/03/06 04:20:05;;;;;;;0.10;0.10;;;;;;;15.22;48.66;100723.16;2097734;28;20127;-57
2023/03/06 04:21:07;;;;;;;0.10;0.10;;;;;;;15.22;48.88;100723.16;2101071;28;20573;-56
2023/03/06 04:22:10;;;;;;;0.10;0.10;;;;;;;15.22;48.70;100712.28;2099817;28;20056;-56
2023/03/06 04:23:14;;;;;;;0.10;0.10;;;;;;;15.22;48.52;100725.88;2105840;28;20097;-57
2023/03/06 04:24:17;;;;;;;0.10;0.10;;;;;;;15.23;48.50;100727.44;2104354;28;20077;-57
2023/03/06 04:25:19;;;;;;;0.10;0.10;;;;;;;15.22;48.48;100717.72;2105643;28;20066;-57
2023/03/06 04:26:23;;;;;;;0.10;0.10;;;;;;;15.23;48.60;100716.56;2108802;28;20070;-57
2023/03/06 04:27:25;;;;;;;0.10;0.10;;;;;;;15.23;48.69;100724.72;2106500;28;20970;-56
2023/03/06 04:28:28;;;;;;;0.10;0.10;;;;;;;15.21;48.64;100710.69;2106289;28;20040;-57
2023/03/06 04:29:32;;;;;;;0.10;0.10;;;;;;;15.22;48.56;100712.28;2108651;28;20050;-57
2023/03/06 04:30:36;;;;;;;0.10;0.10;;;;;;;15.23;48.73;100707.59;2114335;27;20059;-56
2023/03/06 04:31:39;;;;;;;0.10;0.10;;;;;;;15.24;48.56;100709.19;2104590;28;20056;-56
2023/03/06 04:32:42;;;;;;;0.10;0.10;;;;;;;15.22;48.50;100712.28;2096416;28;20045;-57
2023/03/06 04:33:44;;;;;;;0.10;0.10;;;;;;;15.22;48.55;100706.84;2109657;27;20056;-54
2023/03/06 04:34:46;;;;;;;0.10;0.10;;;;;;;15.23;48.73;100697.53;2111949;28;20339;-56
2023/03/06 04:35:49;;;;;;;0.00;0.00;;;;;;;15.23;48.85;100700.25;2110322;28;20055;-56
2023/03/06 04:36:57;;;;;;;0.10;0.10;;;;;;;15.21;48.57;100705.25;2105346;28;20051;-56
2023/03/06 04:38:00;;;;;;;0.03;0.03;;;;;;;15.22;48.45;100700.63;2096700;28;20071;-59
2023/03/06 04:39:05;;;;;;;0.10;0.10;;;;;;;15.22;48.34;100706.84;2110946;28;20509;-56
2023/03/06 04:40:15;;;;;;;0.10;0.10;;;;;;;15.16;48.45;100692.00;2112841;27;20047;-57
2023/03/06 04:41:17;;;;;;;0.10;0.10;;;;;;;15.20;48.42;100703.72;2116980;27;20055;-57
2023/03/06 04:42:20;;;;;;;0.10;0.10;;;;;;;15.21;48.42;100707.19;2113841;27;20090;-55
2023/03/06 04:43:22;;;;;;;0.10;0.10;;;;;;;15.22;48.54;100703.34;2114722;27;20507;-56
2023/03/06 04:44:24;;;;;;;0.10;0.10;;;;;;;15.22;48.64;100706.06;2118252;27;20480;-57
2023/03/06 04:45:29;;;;;;;0.10;0.10;;;;;;;15.21;48.41;100699.81;2113710;27;20093;-56
2023/03/06 04:46:31;;;;;;;0.10;0.10;;;;;;;15.22;48.37;100695.97;2116487;27;20097;-56
2023/03/06 04:47:35;;;;;;;0.10;0.10;;;;;;;15.22;48.49;100701.41;2113099;27;20077;-57
2023/03/06 04:48:37;;;;;;;0.10;0.10;;;;;;;15.21;48.41;100699.81;2114411;27;20059;-57
2023/03/06 04:49:40;;;;;;;0.10;0.10;;;;;;;15.21;48.42;100694.38;2118719;27;20047;-57
2023/03/06 04:50:42;;;;;;;0.10;0.10;;;;;;;15.21;48.63;100705.25;2112909;27;20108;-57
2023/03/06 04:51:45;;;;;;;0.10;0.10;;;;;;;15.22;48.38;100704.13;2113654;27;20505;-56
2023/03/06 04:52:47;;;;;;;0.10;0.10;;;;;;;15.22;48.42;100697.91;2113623;28;20116;-57
2023/03/06 04:53:50;;;;;;;0.10;0.10;;;;;;;15.22;48.31;100701.41;2113664;27;20094;-56
2023/03/06 04:54:52;;;;;;;0.00;0.00;;;;;;;15.19;48.37;100696.69;2116564;27;20483;-56
2023/03/06 04:55:55;;;;;;;0.10;0.10;;;;;;;15.21;48.70;100699.81;2114845;27;20048;-57